Time;durP1;ratioP1;P1;durP2;ratioP2;P2;SDS_P1;SDS_P2;PMS_P1;PMS_P2;Temp;Humidity;BMP_temperature;BMP_pressure;BME280_temperature;BME280_humidity;BME280_pressure;Samples;Min_cycle;Max_cycle;Signal;HPM_P1;HPM_P2
2022/10/13 00:00:50;;;;;;;10.75;5.40;;;;;;;8.32;100.00;101184.00;5198935;28;20037;-78
2022/10/13 00:03:20;;;;;;;15.23;6.10;;;;;;;8.32;100.00;101175.31;5207339;28;20017;-77
2022/10/13 00:05:50;;;;;;;11.75;5.43;;;;;;;8.29;100.00;101185.78;5202945;28;20033;-77
2022/10/13 00:08:21;;;;;;;13.60;5.65;;;;;;;8.20;100.00;101168.56;5201614;28;20029;-78
2022/10/13 00:10:51;;;;;;;13.68;5.57;;;;;;;8.14;100.00;101171.25;5203308;28;20025;-77
2022/10/13 00:13:21;;;;;;;13.52;5.25;;;;;;;8.03;100.00;101173.16;5185979;28;20022;-77
2022/10/13 00:15:52;;;;;;;14.57;5.78;;;;;;;7.98;100.00;101174.97;5201861;28;20026;-77
2022/10/13 00:18:23;;;;;;;11.32;5.45;;;;;;;8.00;100.00;101161.91;5201306;28;20271;-78
2022/10/13 00:20:53;;;;;;;18.13;5.93;;;;;;;8.04;100.00;101168.81;5201376;28;20626;-77
2022/10/13 00:23:24;;;;;;;14.43;5.95;;;;;;;8.06;100.00;101167.88;5201904;28;20087;-77
2022/10/13 00:25:54;;;;;;;13.00;5.55;;;;;;;8.08;100.00;101171.31;5202876;28;20253;-77
2022/10/13 00:28:24;;;;;;;9.93;5.18;;;;;;;8.09;100.00;101167.88;5202473;28;20045;-77
2022/10/13 00:30:55;;;;;;;12.07;5.70;;;;;;;8.17;100.00;101167.72;5196216;28;20593;-78
2022/10/13 00:33:25;;;;;;;12.32;4.95;;;;;;;8.13;100.00;101164.31;5200248;28;20030;-77
2022/10/13 00:35:55;;;;;;;12.40;5.70;;;;;;;8.12;100.00;101157.41;5181317;28;20033;-77
2022/10/13 00:38:26;;;;;;;14.07;5.95;;;;;;;8.22;100.00;101158.97;5201794;28;20038;-77
2022/10/13 00:40:56;;;;;;;13.63;5.72;;;;;;;8.32;100.00;101159.69;5203785;28;20458;-78
2022/10/13 00:43:46;;;;;;;13.90;5.85;;;;;;;8.44;100.00;101155.16;5200590;28;20037;-78
2022/10/13 00:46:16;;;;;;;18.65;5.95;;;;;;;8.58;100.00;101155.72;5198341;28;20489;-77
2022/10/13 00:48:48;;;;;;;14.38;5.40;;;;;;;8.61;100.00;101158.31;5202136;28;20148;-78
2022/10/13 00:51:24;;;;;;;12.20;5.70;;;;;;;8.70;100.00;101152.91;5202079;28;20032;-78
2022/10/13 00:53:56;;;;;;;14.77;5.80;;;;;;;8.69;100.00;101156.41;5221334;22;20087;-73
2022/10/13 00:56:27;;;;;;;13.63;5.85;;;;;;;8.63;100.00;101156.53;5215242;28;20478;-71
2022/10/13 00:58:59;;;;;;;14.68;5.78;;;;;;;8.56;100.00;101141.03;5220196;28;20104;-72
2022/10/13 01:01:30;;;;;;;11.20;6.13;;;;;;;8.52;100.00;101153.25;5220504;28;20025;-73
2022/10/13 01:04:00;;;;;;;9.65;5.55;;;;;;;8.52;100.00;101150.63;5226483;28;20246;-73
2022/10/13 01:06:31;;;;;;;14.80;5.80;;;;;;;8.54;100.00;101151.47;5241131;28;20036;-72
2022/10/13 01:09:02;;;;;;;16.58;6.18;;;;;;;8.53;100.00;101149.75;5241067;28;20033;-73
2022/10/13 01:11:54;;;;;;;13.45;5.78;;;;;;;8.59;100.00;101149.63;5222040;28;20484;-72
2022/10/13 01:14:53;;;;;;;13.98;6.20;;;;;;;8.58;100.00;101147.91;5240377;28;20520;-73
2022/10/13 01:17:40;;;;;;;15.98;5.97;;;;;;;8.60;100.00;101147.91;5237543;28;20036;-73
2022/10/13 01:20:44;;;;;;;13.70;5.68;;;;;;;8.69;100.00;101145.13;5241006;28;20383;-72
2022/10/13 01:23:31;;;;;;;15.35;5.75;;;;;;;8.61;100.00;101142.66;5240964;28;20028;-72
2022/10/13 01:26:08;;;;;;;13.07;5.93;;;;;;;8.59;100.00;101136.59;5239303;28;20039;-73
2022/10/13 01:29:06;;;;;;;12.52;5.80;;;;;;;8.55;100.00;101134.94;5240638;28;20115;-73
2022/10/13 01:31:43;;;;;;;11.10;5.65;;;;;;;8.54;100.00;101140.22;5240750;28;20021;-73
2022/10/13 01:34:22;;;;;;;13.50;5.45;;;;;;;8.49;100.00;101142.88;5240187;28;20073;-73
2022/10/13 01:37:15;;;;;;;14.27;5.95;;;;;;;8.39;100.00;101138.72;5237510;28;20615;-72
2022/10/13 01:39:53;;;;;;;14.18;6.38;;;;;;;8.41;100.00;101138.69;5240425;28;20492;-72
2022/10/13 01:42:34;;;;;;;12.05;6.25;;;;;;;8.41;100.00;101131.72;5240630;28;20028;-73
2022/10/13 01:45:06;;;;;;;15.90;6.10;;;;;;;8.39;100.00;101136.13;5240453;28;20441;-73
2022/10/13 01:47:38;;;;;;;15.60;6.60;;;;;;;8.35;100.00;101125.81;5239975;28;20028;-73
2022/10/13 01:50:10;;;;;;;14.30;6.45;;;;;;;8.34;100.00;101124.94;5241029;28;20028;-72
2022/10/13 01:52:41;;;;;;;17.45;6.78;;;;;;;8.40;100.00;101122.19;5240862;28;20028;-73
2022/10/13 01:55:12;;;;;;;15.60;7.15;;;;;;;8.45;100.00;101124.72;5240587;28;20509;-73
2022/10/13 01:57:44;;;;;;;11.55;6.10;;;;;;;8.53;100.00;101121.09;5240078;28;20075;-73
2022/10/13 02:00:20;;;;;;;15.38;6.40;;;;;;;8.54;100.00;101114.16;5236084;28;20525;-73
2022/10/13 02:03:19;;;;;;;12.60;6.43;;;;;;;8.56;100.00;101113.22;5237002;28;20035;-72
2022/10/13 02:06:17;;;;;;;20.02;6.88;;;;;;;8.57;100.00;101109.72;5240590;28;20032;-73
2022/10/13 02:08:54;;;;;;;13.00;6.47;;;;;;;8.68;100.00;101105.19;5235979;28;20036;-73
2022/10/13 02:11:26;;;;;;;18.02;7.32;;;;;;;8.60;100.00;101108.81;5240123;28;20249;-72
2022/10/13 02:14:09;;;;;;;11.20;6.47;;;;;;;8.64;100.00;101105.25;5240045;28;20417;-73
2022/10/13 02:16:43;;;;;;;15.82;6.90;;;;;;;8.57;100.00;101109.72;5239799;28;20031;-72
2022/10/13 02:19:16;;;;;;;15.63;6.70;;;;;;;8.50;100.00;101105.53;5240066;28;20024;-72
2022/10/13 02:21:47;;;;;;;14.88;6.63;;;;;;;8.50;100.00;101102.94;5239933;28;20029;-72
2022/10/13 02:24:17;;;;;;;16.95;7.03;;;;;;;8.53;100.00;101108.06;5240336;28;20036;-72
2022/10/13 02:26:50;;;;;;;14.25;7.15;;;;;;;8.56;100.00;101102.81;5240038;28;20032;-72
2022/10/13 02:29:20;;;;;;;15.73;7.35;;;;;;;8.54;100.00;101093.31;5239615;28;20025;-72
2022/10/13 02:31:53;;;;;;;13.68;7.18;;;;;;;8.53;100.00;101102.03;5240229;28;20032;-72
2022/10/13 02:34:23;;;;;;;16.67;7.43;;;;;;;8.54;100.00;101098.53;5239689;28;20081;-73
2022/10/13 02:36:54;;;;;;;21.73;7.97;;;;;;;8.58;100.00;101093.19;5240145;28;20052;-73
2022/10/13 02:39:24;;;;;;;17.83;7.80;;;;;;;8.63;100.00;101087.91;5239320;28;20032;-73
2022/10/13 02:41:54;;;;;;;13.40;6.72;;;;;;;8.60;100.00;101083.66;5239415;28;20368;-73
2022/10/13 02:44:25;;;;;;;20.45;6.93;;;;;;;8.56;100.00;101084.56;5242969;28;20056;-72
2022/10/13 02:46:55;;;;;;;16.80;7.20;;;;;;;8.54;100.00;101081.13;5243755;28;20027;-71
2022/10/13 02:49:25;;;;;;;15.88;7.22;;;;;;;8.59;100.00;101081.91;5243693;28;20032;-73
2022/10/13 02:51:56;;;;;;;16.38;6.95;;;;;;;8.51;100.00;101080.31;5244293;28;20028;-73
2022/10/13 02:54:27;;;;;;;14.13;7.13;;;;;;;8.50;100.00;101082.09;5243166;28;20119;-73
2022/10/13 02:56:58;;;;;;;14.70;6.85;;;;;;;8.36;100.00;101078.03;5243436;28;20553;-73
2022/10/13 02:59:29;;;;;;;14.70;6.90;;;;;;;8.27;100.00;101079.06;5243526;28;20055;-73
2022/10/13 03:01:59;;;;;;;14.25;6.47;;;;;;;8.49;100.00;101079.50;5243516;28;20024;-73
2022/10/13 03:04:30;;;;;;;16.30;7.05;;;;;;;8.42;100.00;101078.75;5243294;28;20116;-72
2022/10/13 03:07:00;;;;;;;13.32;6.63;;;;;;;8.32;100.00;101077.22;5242720;28;20382;-73
2022/10/13 03:09:31;;;;;;;14.15;6.85;;;;;;;8.31;100.00;101075.50;5243298;28;20597;-73
2022/10/13 03:12:01;;;;;;;16.15;7.45;;;;;;;8.38;100.00;101077.09;5243198;28;20032;-73
2022/10/13 03:14:31;;;;;;;18.08;7.18;;;;;;;8.44;100.00;101076.13;5225729;28;20029;-72
2022/10/13 03:17:02;;;;;;;13.98;7.35;;;;;;;8.43;100.00;101079.63;5243333;28;20213;-72
2022/10/13 03:19:33;;;;;;;13.90;7.05;;;;;;;8.46;100.00;101077.84;5243532;28;20037;-73
2022/10/13 03:22:03;;;;;;;16.00;7.25;;;;;;;8.37;100.00;101084.97;5243317;28;20772;-73
2022/10/13 03:24:33;;;;;;;17.42;7.43;;;;;;;8.38;100.00;101082.31;5216871;28;20024;-73
2022/10/13 03:27:03;;;;;;;16.77;7.38;;;;;;;8.43;100.00;101083.09;5242450;28;20033;-73
2022/10/13 03:29:34;;;;;;;17.83;7.50;;;;;;;8.43;100.00;101070.09;5225240;28;20043;-72
2022/10/13 03:32:04;;;;;;;15.90;8.30;;;;;;;8.48;100.00;101072.56;5242788;28;20317;-73
2022/10/13 03:34:34;;;;;;;23.10;8.98;;;;;;;8.56;100.00;101068.94;5242435;28;20040;-73
2022/10/13 03:37:05;;;;;;;14.88;7.88;;;;;;;8.52;100.00;101069.06;5242356;28;20033;-73
2022/10/13 03:39:35;;;;;;;19.50;8.50;;;;;;;8.35;100.00;101056.31;5242556;28;20147;-73
2022/10/13 03:42:06;;;;;;;16.48;8.30;;;;;;;8.30;100.00;101068.59;5242718;28;20146;-73
2022/10/13 03:44:36;;;;;;;16.40;7.80;;;;;;;8.30;100.00;101063.38;5243124;28;20086;-73
2022/10/13 03:47:06;;;;;;;17.85;7.95;;;;;;;8.34;100.00;101075.44;5242173;28;20056;-73
2022/10/13 03:49:37;;;;;;;14.73;7.82;;;;;;;8.25;100.00;101077.38;5243158;28;20578;-74
2022/10/13 03:52:08;;;;;;;15.23;8.05;;;;;;;8.27;100.00;101073.84;5242908;28;20035;-74
2022/10/13 03:54:38;;;;;;;15.50;7.72;;;;;;;8.30;100.00;101071.19;5223793;28;20024;-73
2022/10/13 03:57:08;;;;;;;17.35;7.85;;;;;;;8.24;100.00;101073.03;5241402;28;20036;-73
2022/10/13 03:59:39;;;;;;;17.05;8.70;;;;;;;8.21;100.00;101063.53;5240888;28;20024;-73
2022/10/13 04:02:10;;;;;;;17.50;8.18;;;;;;;8.32;100.00;101068.53;5241263;28;20075;-73
2022/10/13 04:04:40;;;;;;;16.35;8.43;;;;;;;8.26;100.00;101064.34;5241306;28;20028;-73
2022/10/13 04:07:10;;;;;;;17.65;8.32;;;;;;;8.26;100.00;101064.34;5240898;28;20042;-73
2022/10/13 04:09:41;;;;;;;16.83;9.73;;;;;;;8.29;100.00;101066.88;5240535;28;20029;-73
2022/10/13 04:12:11;;;;;;;22.88;11.43;;;;;;;8.33;100.00;101065.03;5240789;28;20071;-72
2022/10/13 04:14:41;;;;;;;18.02;8.93;;;;;;;8.43;100.00;101066.59;5224436;28;20024;-73
2022/10/13 04:17:12;;;;;;;17.05;8.82;;;;;;;8.45;100.00;101063.09;5241667;28;20563;-72
2022/10/13 04:19:42;;;;;;;22.77;8.52;;;;;;;8.61;100.00;101055.81;5241961;28;20133;-73
2022/10/13 04:22:12;;;;;;;17.90;8.25;;;;;;;8.60;100.00;101052.38;5242285;28;20024;-72
2022/10/13 04:24:42;;;;;;;17.77;8.77;;;;;;;8.61;100.00;101054.09;5241749;28;20545;-73
2022/10/13 04:27:15;;;;;;;19.70;9.93;;;;;;;8.77;100.00;101060.72;5241015;28;20051;-73
2022/10/13 04:29:45;;;;;;;21.05;9.65;;;;;;;8.76;100.00;101056.34;5237877;28;20074;-73
2022/10/13 04:32:16;;;;;;;21.00;9.05;;;;;;;8.83;100.00;101063.19;5241248;28;20037;-73
2022/10/13 04:34:46;;;;;;;21.58;9.48;;;;;;;8.81;100.00;101067.56;5223848;28;20024;-73
2022/10/13 04:37:16;;;;;;;16.23;8.93;;;;;;;8.81;100.00;101067.56;5241192;28;20033;-73
2022/10/13 04:39:47;;;;;;;24.13;9.10;;;;;;;8.76;100.00;101061.56;5241562;28;20029;-73
2022/10/13 04:42:17;;;;;;;15.93;8.82;;;;;;;8.73;100.00;101061.63;5241131;28;20030;-73
2022/10/13 04:44:47;;;;;;;17.92;8.73;;;;;;;8.82;100.00;101052.78;5241883;28;20033;-73
2022/10/13 04:47:17;;;;;;;19.05;8.88;;;;;;;8.72;100.00;101056.47;5241482;28;20119;-73
2022/10/13 04:49:48;;;;;;;17.85;8.82;;;;;;;8.75;100.00;101052.03;5241456;28;20027;-73
2022/10/13 04:52:18;;;;;;;15.32;8.63;;;;;;;8.81;100.00;101053.66;5241214;28;20032;-73
2022/10/13 04:54:48;;;;;;;19.27;8.98;;;;;;;8.76;100.00;101047.69;5240677;28;20047;-73
2022/10/13 04:57:19;;;;;;;21.92;8.85;;;;;;;8.82;100.00;101047.56;5240591;28;20028;-73
2022/10/13 04:59:49;;;;;;;16.70;8.57;;;;;;;8.79;100.00;101051.13;5241033;28;20028;-73
2022/10/13 05:02:20;;;;;;;20.73;9.65;;;;;;;8.73;100.00;101039.94;5240646;28;20032;-73
2022/10/13 05:04:50;;;;;;;15.40;9.63;;;;;;;8.65;100.00;101050.53;5241227;28;20024;-73
2022/10/13 05:07:21;;;;;;;23.73;9.35;;;;;;;8.58;100.00;101048.06;5240842;28;20032;-73
2022/10/13 05:09:51;;;;;;;24.15;9.60;;;;;;;8.61;100.00;101046.28;5240394;28;20596;-73
2022/10/13 05:12:21;;;;;;;19.67;10.05;;;;;;;8.49;100.00;101043.91;5240958;28;20033;-73
2022/10/13 05:14:52;;;;;;;14.82;8.85;;;;;;;8.50;100.00;101037.81;5223182;28;20017;-73
2022/10/13 05:17:22;;;;;;;20.63;9.32;;;;;;;8.42;100.00;101046.66;5240535;28;20069;-73
2022/10/13 05:19:53;;;;;;;20.13;9.57;;;;;;;8.35;100.00;101045.06;5240917;28;20021;-73
2022/10/13 05:22:23;;;;;;;20.73;9.93;;;;;;;8.33;100.00;101045.09;5240093;28;20111;-73
2022/10/13 05:24:53;;;;;;;18.95;9.40;;;;;;;8.40;100.00;101038.88;5240822;28;20028;-74
2022/10/13 05:27:24;;;;;;;17.90;9.55;;;;;;;8.38;100.00;101045.00;5240678;28;20086;-73
2022/10/13 05:29:54;;;;;;;16.60;9.25;;;;;;;8.32;100.00;101040.78;5240797;28;20033;-73
2022/10/13 05:32:24;;;;;;;19.10;9.20;;;;;;;8.33;100.00;101034.66;5240716;28;20036;-73
2022/10/13 05:34:55;;;;;;;21.48;9.43;;;;;;;8.31;100.00;101033.84;5240299;28;20441;-73
2022/10/13 05:37:25;;;;;;;18.98;9.18;;;;;;;8.29;100.00;101037.34;5221805;28;20050;-73
2022/10/13 05:39:55;;;;;;;21.15;9.50;;;;;;;8.39;100.00;101036.31;5240674;28;20035;-73
2022/10/13 05:42:28;;;;;;;19.75;9.07;;;;;;;8.38;100.00;101032.81;5240681;28;20032;-72
2022/10/13 05:44:58;;;;;;;19.65;9.48;;;;;;;8.36;100.00;101032.00;5240117;28;20102;-73
2022/10/13 05:47:28;;;;;;;17.10;9.45;;;;;;;8.21;100.00;101027.09;5239373;28;20028;-73
2022/10/13 05:49:59;;;;;;;15.75;9.48;;;;;;;8.19;100.00;101028.84;5239236;28;20057;-71
2022/10/13 05:52:32;;;;;;;22.30;9.82;;;;;;;8.18;100.00;101032.34;5240619;28;20038;-73
2022/10/13 05:55:04;;;;;;;18.10;9.65;;;;;;;8.28;100.00;101022.63;5238555;28;20477;-73
2022/10/13 05:57:45;;;;;;;19.88;9.93;;;;;;;8.27;100.00;101021.78;5240094;28;20630;-73
2022/10/13 06:00:18;;;;;;;20.38;10.23;;;;;;;8.29;100.00;101020.00;5236109;28;20094;-73
2022/10/13 06:03:07;;;;;;;21.13;9.80;;;;;;;8.19;100.00;101018.44;5239086;28;20033;-73
2022/10/13 06:05:39;;;;;;;19.17;9.60;;;;;;;8.21;100.00;101014.06;5219879;28;20016;-73
2022/10/13 06:08:09;;;;;;;19.88;8.65;;;;;;;8.26;100.00;101014.84;5238140;28;20394;-72
2022/10/13 06:10:41;;;;;;;17.65;9.45;;;;;;;8.22;100.00;101013.19;5238344;28;20087;-74
2022/10/13 06:13:11;;;;;;;19.45;9.93;;;;;;;8.25;100.00;101007.91;5234635;28;20031;-73
2022/10/13 06:15:42;;;;;;;23.83;10.88;;;;;;;8.41;100.00;101008.47;5238677;28;20032;-73
2022/10/13 06:18:12;;;;;;;20.48;10.63;;;;;;;8.40;100.00;101012.81;5241296;28;20200;-73
2022/10/13 06:20:42;;;;;;;18.05;9.68;;;;;;;8.54;100.00;101015.16;5244693;28;20166;-73
2022/10/13 06:23:13;;;;;;;16.65;9.50;;;;;;;8.55;100.00;101014.28;5225741;28;20063;-73
2022/10/13 06:25:47;;;;;;;23.05;9.40;;;;;;;8.60;100.00;101008.09;5244451;28;20028;-73
2022/10/13 06:28:19;;;;;;;18.92;9.82;;;;;;;8.57;100.00;101005.53;5240334;28;20041;-73
2022/10/13 06:30:54;;;;;;;23.33;10.90;;;;;;;8.62;100.00;101008.91;5226758;28;20195;-73
2022/10/13 06:33:25;;;;;;;19.67;10.45;;;;;;;8.58;100.00;100999.41;5243424;28;20112;-73
2022/10/13 06:35:55;;;;;;;16.20;9.60;;;;;;;8.72;100.00;101002.59;5244336;28;20099;-73
2022/10/13 06:38:25;;;;;;;17.83;10.00;;;;;;;8.63;100.00;101005.41;5243289;28;20033;-73
2022/10/13 06:41:00;;;;;;;19.23;9.77;;;;;;;8.71;100.00;100994.84;5244090;28;20028;-73
2022/10/13 06:43:31;;;;;;;15.60;9.50;;;;;;;8.76;100.00;101001.63;5243143;28;20390;-73
2022/10/13 06:46:02;;;;;;;19.80;8.90;;;;;;;8.87;100.00;100999.66;5244248;28;20508;-72
2022/10/13 06:48:32;;;;;;;21.48;10.15;;;;;;;8.67;100.00;100996.63;5243676;28;20028;-73
2022/10/13 06:51:08;;;;;;;17.35;9.90;;;;;;;8.74;100.00;101008.63;5226003;28;20234;-73
2022/10/13 06:56:13;;;;;;;18.73;10.07;;;;;;;8.90;100.00;100999.59;5180395;28;20038;-78
2022/10/13 06:58:43;;;;;;;19.80;9.93;;;;;;;9.01;100.00;101012.38;5183859;28;20575;-78
2022/10/13 07:01:13;;;;;;;18.25;9.85;;;;;;;9.24;100.00;101000.53;5184961;28;20113;-78
2022/10/13 07:03:48;;;;;;;18.23;10.18;;;;;;;9.27;100.00;101006.56;5185305;28;20091;-78
2022/10/13 07:06:18;;;;;;;19.00;10.07;;;;;;;9.50;100.00;101004.25;5170002;28;20495;-78
2022/10/13 07:08:48;;;;;;;17.83;9.93;;;;;;;9.68;100.00;100998.56;5177651;28;20022;-78
2022/10/13 07:11:19;;;;;;;18.60;9.55;;;;;;;9.88;100.00;101005.91;5165055;28;20572;-75
2022/10/13 07:13:49;;;;;;;21.10;9.68;;;;;;;9.77;100.00;101005.31;5174422;28;20030;-78
2022/10/13 07:16:20;;;;;;;16.75;9.77;;;;;;;9.88;100.00;101005.91;5171355;28;20046;-78
2022/10/13 07:18:50;;;;;;;19.25;11.00;;;;;;;9.90;100.00;100998.88;5173731;28;20566;-78
2022/10/13 07:21:21;;;;;;;24.27;11.52;;;;;;;9.91;100.00;100998.00;5171005;28;20050;-78
2022/10/13 07:23:52;;;;;;;26.98;11.80;;;;;;;9.88;100.00;101001.56;5174124;28;20287;-77
2022/10/13 07:26:22;;;;;;;24.30;11.15;;;;;;;9.83;100.00;100994.72;5170161;28;20400;-77
2022/10/13 07:28:52;;;;;;;23.88;11.45;;;;;;;10.00;100.00;101001.22;5172068;28;20041;-78
2022/10/13 07:31:22;;;;;;;21.25;11.32;;;;;;;10.03;100.00;100997.72;5166450;28;20026;-78
2022/10/13 07:33:53;;;;;;;22.30;11.45;;;;;;;10.02;100.00;100998.59;5165521;28;20022;-78
2022/10/13 07:36:24;;;;;;;20.98;11.30;;;;;;;10.07;100.00;100991.50;5172229;28;20335;-78
2022/10/13 07:38:55;;;;;;;21.40;12.13;;;;;;;10.23;100.00;100998.03;5171299;28;20057;-78
2022/10/13 07:41:25;;;;;;;18.92;11.02;;;;;;;10.49;100.00;100992.94;5167352;28;20030;-78
2022/10/13 07:43:55;;;;;;;21.20;11.70;;;;;;;10.53;100.00;100981.50;5154660;28;20518;-78
2022/10/13 07:46:26;;;;;;;19.17;10.95;;;;;;;10.63;100.00;100982.91;5172034;28;20113;-76
2022/10/13 07:48:56;;;;;;;18.42;12.05;;;;;;;10.73;100.00;100987.88;5173300;28;20033;-78
2022/10/13 07:51:26;;;;;;;24.60;12.00;;;;;;;10.96;100.00;100987.16;5172187;28;20097;-78
2022/10/13 07:53:57;;;;;;;22.13;11.40;;;;;;;11.35;100.00;100992.88;5172757;28;20022;-78
2022/10/13 07:56:27;;;;;;;21.60;11.38;;;;;;;11.62;100.00;100989.38;5171462;28;20037;-78
2022/10/13 07:58:57;;;;;;;20.95;11.57;;;;;;;11.59;100.00;100993.88;5173007;28;20033;-78
2022/10/13 08:01:28;;;;;;;21.92;11.80;;;;;;;11.72;100.00;100993.41;5167144;28;20022;-78
2022/10/13 08:03:58;;;;;;;23.52;11.40;;;;;;;11.94;100.00;100996.16;5167565;28;20100;-78
2022/10/13 08:06:28;;;;;;;25.45;12.05;;;;;;;12.23;100.00;100985.50;5171964;28;20643;-78
2022/10/13 08:08:59;;;;;;;18.40;10.52;;;;;;;12.29;100.00;100983.50;5153592;28;20022;-78
2022/10/13 08:11:30;;;;;;;18.92;11.15;;;;;;;12.24;100.00;100980.22;5147090;28;20034;-78
2022/10/13 08:14:01;;;;;;;18.05;11.30;;;;;;;12.29;100.00;100973.03;5171592;28;20022;-78
2022/10/13 08:16:31;;;;;;;24.77;11.90;;;;;;;12.33;100.00;100979.03;5172261;28;20038;-78
2022/10/13 08:19:02;;;;;;;19.80;11.40;;;;;;;12.52;100.00;100980.94;5171706;28;20483;-78
2022/10/13 08:21:32;;;;;;;21.92;10.25;;;;;;;13.02;100.00;100975.50;5171689;28;20038;-76
2022/10/13 08:24:04;;;;;;;20.83;10.05;;;;;;;13.69;100.00;100981.47;5170509;28;20021;-78
2022/10/13 08:26:34;;;;;;;19.15;10.38;;;;;;;14.01;100.00;100967.84;5168855;28;20025;-78
2022/10/13 08:29:05;;;;;;;19.13;9.60;;;;;;;14.17;100.00;100955.78;5172890;28;20038;-77
2022/10/13 08:31:35;;;;;;;18.55;9.90;;;;;;;14.31;100.00;100958.66;5169454;28;20038;-78
2022/10/13 08:34:06;;;;;;;13.95;8.13;;;;;;;14.52;98.12;100968.19;5167217;28;20040;-78
2022/10/13 08:36:37;;;;;;;17.02;8.70;;;;;;;14.31;100.00;100967.41;5171304;28;20519;-78
2022/10/13 08:39:09;;;;;;;16.00;8.63;;;;;;;14.72;97.39;100970.75;5171897;28;20087;-78
2022/10/13 08:41:45;;;;;;;15.70;8.43;;;;;;;14.72;96.88;100976.03;5164097;28;20029;-78
2022/10/13 08:44:18;;;;;;;14.98;8.57;;;;;;;14.92;98.98;100979.44;5170156;28;20116;-77
2022/10/13 08:46:58;;;;;;;17.00;8.27;;;;;;;15.07;95.92;100969.06;5170662;28;20053;-78
2022/10/13 08:49:29;;;;;;;17.42;8.88;;;;;;;15.14;95.98;100949.41;5172205;28;20450;-78
2022/10/13 08:52:04;;;;;;;16.45;8.77;;;;;;;15.00;97.64;100936.03;5172710;28;20050;-77
2022/10/13 08:54:34;;;;;;;17.92;8.27;;;;;;;15.25;95.53;100941.84;5172189;28;20026;-78
2022/10/13 08:57:05;;;;;;;19.25;8.38;;;;;;;15.42;94.47;100952.44;5171026;28;20411;-78
2022/10/13 08:59:35;;;;;;;17.05;9.00;;;;;;;15.46;94.72;100939.97;5172141;28;20506;-78
2022/10/13 09:02:12;;;;;;;17.83;8.02;;;;;;;15.50;94.86;100923.94;5165146;28;20038;-77
2022/10/13 09:04:47;;;;;;;17.58;8.48;;;;;;;15.28;96.56;100928.53;5172636;28;20064;-78
2022/10/13 09:07:25;;;;;;;15.27;8.00;;;;;;;15.66;94.86;100938.03;5169311;28;20037;-78
2022/10/13 09:09:55;;;;;;;17.38;7.85;;;;;;;15.58;95.16;100924.41;5169028;28;20026;-78
2022/10/13 09:12:26;;;;;;;17.77;8.68;;;;;;;15.64;95.06;100934.63;5165063;28;20041;-77
2022/10/13 09:14:58;;;;;;;16.17;8.75;;;;;;;15.67;94.50;100929.19;5172742;28;20022;-78
2022/10/13 09:17:30;;;;;;;16.67;8.93;;;;;;;15.27;96.05;100929.47;5153938;28;20402;-78
2022/10/13 09:20:15;;;;;;;21.60;8.77;;;;;;;15.25;97.54;100930.44;5172109;28;20045;-78
2022/10/13 09:23:19;;;;;;;13.70;7.95;;;;;;;15.17;98.65;100912.38;5166329;28;20081;-78
2022/10/13 09:25:51;;;;;;;13.77;6.95;;;;;;;15.55;97.35;100919.28;5170363;28;20058;-78
2022/10/13 09:28:25;;;;;;;15.63;7.97;;;;;;;15.64;96.08;100920.59;5170835;28;20025;-78
2022/10/13 09:31:00;;;;;;;17.08;7.05;;;;;;;15.54;94.96;100916.72;5171168;28;20034;-78
2022/10/13 09:33:35;;;;;;;12.63;7.57;;;;;;;15.74;94.94;100920.03;5163237;28;20150;-78
2022/10/13 09:36:11;;;;;;;15.50;7.03;;;;;;;16.02;94.56;100922.97;5168853;28;20280;-77
2022/10/13 09:39:03;;;;;;;13.10;5.80;;;;;;;16.03;92.50;100927.31;5166748;28;20030;-77
2022/10/13 09:41:34;;;;;;;12.07;5.90;;;;;;;16.36;92.45;100915.00;5164555;28;20015;-78
2022/10/13 09:44:10;;;;;;;13.27;5.47;;;;;;;16.62;90.26;100917.09;5163846;28;20117;-78
2022/10/13 09:46:51;;;;;;;13.07;5.97;;;;;;;16.82;88.15;100914.22;5166535;28;20029;-77
2022/10/13 09:49:40;;;;;;;11.45;5.15;;;;;;;16.87;88.95;100922.72;5166637;28;20046;-77
2022/10/13 09:52:10;;;;;;;14.43;5.55;;;;;;;16.96;89.14;100916.94;5173054;28;20053;-78
2022/10/13 09:54:46;;;;;;;13.67;5.57;;;;;;;16.92;85.51;100915.38;5177145;28;20022;-78
2022/10/13 09:57:23;;;;;;;12.77;5.38;;;;;;;16.87;87.06;100928.88;5173190;28;21005;-78
2022/10/13 10:00:09;;;;;;;12.30;5.38;;;;;;;16.65;87.73;100923.97;5176701;28;20034;-78
2022/10/13 10:03:13;;;;;;;11.77;5.50;;;;;;;16.58;89.14;100922.63;5168183;28;20036;-78
2022/10/13 10:05:49;;;;;;;14.43;5.05;;;;;;;16.68;90.12;100937.00;5160257;28;20036;-78
2022/10/13 10:08:36;;;;;;;12.30;5.07;;;;;;;16.49;89.03;100937.16;5153363;28;20081;-78
2022/10/13 10:11:17;;;;;;;11.63;5.05;;;;;;;16.39;86.39;100941.22;5169661;28;20029;-78
2022/10/13 10:13:47;;;;;;;10.65;4.57;;;;;;;16.28;87.49;100935.66;5171543;28;20390;-78
2022/10/13 10:16:39;;;;;;;10.57;5.05;;;;;;;16.29;86.41;100937.34;5174098;28;20121;-78
2022/10/13 10:19:37;;;;;;;12.77;4.68;;;;;;;16.17;88.30;100932.72;5175231;28;20038;-78
2022/10/13 10:22:42;;;;;;;11.43;4.68;;;;;;;16.14;89.16;100932.03;5176300;28;20025;-78
2022/10/13 10:25:32;;;;;;;12.48;5.35;;;;;;;16.33;88.87;100909.88;5177059;28;20037;-78
2022/10/13 10:28:40;;;;;;;9.45;4.90;;;;;;;16.27;88.08;100911.97;5173628;28;20500;-78
2022/10/13 10:31:19;;;;;;;12.40;5.30;;;;;;;16.47;88.28;100904.75;5174147;28;20379;-78
2022/10/13 10:34:00;;;;;;;15.25;5.20;;;;;;;16.46;87.74;100908.31;5165822;28;20026;-78
2022/10/13 10:37:12;;;;;;;12.35;5.15;;;;;;;16.62;87.82;100905.69;5173550;28;20037;-77
2022/10/13 10:39:56;;;;;;;10.55;4.85;;;;;;;16.68;87.31;100902.69;5157813;28;20038;-78
2022/10/13 10:42:57;;;;;;;13.27;5.10;;;;;;;16.88;88.36;100898.88;5173830;28;20029;-78
2022/10/13 10:45:33;;;;;;;14.77;5.00;;;;;;;16.92;86.47;100895.13;5169122;28;20085;-78
2022/10/13 10:48:15;;;;;;;7.97;4.25;;;;;;;17.00;86.24;100900.81;5176169;28;20033;-78
2022/10/13 10:50:46;;;;;;;8.68;4.00;;;;;;;17.19;87.17;100887.41;5170834;28;20030;-78
2022/10/13 10:53:19;;;;;;;10.05;4.25;;;;;;;17.29;86.66;100878.88;5173065;28;20404;-78
2022/10/13 10:56:14;;;;;;;7.75;3.55;;;;;;;17.44;85.62;100869.22;5170915;28;20049;-78
2022/10/13 10:59:03;;;;;;;7.15;3.78;;;;;;;17.37;84.99;100873.19;5174383;28;20480;-78
2022/10/13 11:01:45;;;;;;;9.48;4.20;;;;;;;17.40;86.58;100873.84;5168251;28;20562;-78
2022/10/13 11:04:39;;;;;;;11.60;4.10;;;;;;;17.08;86.06;100873.97;5171267;28;20172;-78
2022/10/13 11:07:10;;;;;;;8.75;3.50;;;;;;;17.02;86.17;100867.28;5173791;28;20052;-78
2022/10/13 11:09:40;;;;;;;8.52;3.38;;;;;;;16.83;86.17;100868.41;5172820;28;20100;-78
2022/10/13 11:12:20;;;;;;;9.93;3.50;;;;;;;16.95;86.59;100863.25;5169429;28;20034;-77
2022/10/13 11:14:53;;;;;;;10.98;3.33;;;;;;;16.89;86.12;100868.91;5168986;28;20550;-77
2022/10/13 11:17:28;;;;;;;9.60;3.53;;;;;;;16.85;89.09;100862.09;5169910;28;20279;-78
2022/10/13 11:19:59;;;;;;;8.88;3.38;;;;;;;16.94;87.00;100860.72;5173529;28;20385;-77
2022/10/13 11:22:30;;;;;;;7.32;3.28;;;;;;;16.93;85.96;100856.34;5173469;28;20044;-77
2022/10/13 11:25:22;;;;;;;7.47;3.30;;;;;;;16.97;86.07;100849.97;5174019;28;20049;-78
2022/10/13 11:27:52;;;;;;;9.27;3.20;;;;;;;16.87;85.54;100846.16;5160817;28;20125;-78
2022/10/13 11:30:41;;;;;;;10.57;3.80;;;;;;;16.81;86.99;100847.34;5155248;28;20300;-78
2022/10/13 11:33:31;;;;;;;10.43;3.70;;;;;;;17.10;88.19;100843.03;5167166;28;20514;-78
2022/10/13 11:36:29;;;;;;;9.18;3.60;;;;;;;17.01;86.36;100852.34;5172752;28;20034;-78
2022/10/13 11:39:02;;;;;;;8.15;3.60;;;;;;;16.99;86.22;100843.66;5171738;28;20030;-77
2022/10/13 11:41:44;;;;;;;18.95;8.65;;;;;;;17.02;85.53;100840.88;5149655;28;20028;-78
2022/10/13 11:44:33;;;;;;;8.30;4.00;;;;;;;17.17;84.38;100842.59;5172860;28;20034;-77
2022/10/13 11:47:41;;;;;;;10.32;3.80;;;;;;;16.97;85.27;100834.13;5172193;28;20036;-78
2022/10/13 11:50:24;;;;;;;9.48;4.05;;;;;;;16.97;84.61;100828.84;5175192;28;20758;-77
2022/10/13 11:53:16;;;;;;;8.48;3.80;;;;;;;16.97;85.50;100829.69;5170595;28;20026;-78